createdAt,value
2023-09-18T00:00:10.182Z,4.50
2023-09-18T00:02:11.722Z,4.97
2023-09-18T00:04:13.486Z,4.68
2023-09-18T00:06:14.965Z,4.55
2023-09-18T00:08:17.940Z,4.47
2023-09-18T00:10:19.377Z,4.60
2023-09-18T00:12:20.841Z,4.55
2023-09-18T00:14:22.270Z,4.18
2023-09-18T00:16:24.122Z,4.55
2023-09-18T00:18:25.924Z,4.35
2023-09-18T00:20:28.278Z,4.97
2023-09-18T00:22:29.910Z,4.75
2023-09-18T00:24:31.316Z,4.72
2023-09-18T00:26:32.821Z,4.50
2023-09-18T00:28:34.257Z,4.57
2023-09-18T00:30:36.009Z,4.78
2023-09-18T00:32:37.456Z,4.30
2023-09-18T00:34:39.422Z,5.15
2023-09-18T00:36:40.981Z,4.50
2023-09-18T00:38:42.398Z,4.40
2023-09-18T00:40:44.245Z,4.00
2023-09-18T00:42:46.612Z,4.38
2023-09-18T00:44:48.141Z,4.45
2023-09-18T00:46:50.427Z,4.07
2023-09-18T00:48:52.469Z,4.38
2023-09-18T00:50:54.158Z,4.22
2023-09-18T00:52:55.921Z,4.53
2023-09-18T00:54:57.542Z,4.45
2023-09-18T00:56:59.141Z,4.30
2023-09-18T00:59:01.240Z,4.80
2023-09-18T01:01:04.467Z,4.38
2023-09-18T01:03:06.348Z,4.65
2023-09-18T01:05:07.994Z,4.60
2023-09-18T01:07:09.429Z,4.22
2023-09-18T01:09:14.127Z,4.82
2023-09-18T01:11:25.055Z,4.30
2023-09-18T01:13:35.036Z,4.47
2023-09-18T01:15:46.177Z,4.38
2023-09-18T01:17:48.153Z,4.38
2023-09-18T01:19:49.681Z,4.22
2023-09-18T01:21:51.082Z,4.22
2023-09-18T01:23:52.797Z,4.38
2023-09-18T01:25:54.273Z,4.30
2023-09-18T01:27:55.742Z,4.85
2023-09-18T01:29:57.172Z,4.47
2023-09-18T01:31:59.320Z,4.60
2023-09-18T01:34:01.986Z,4.60
2023-09-18T01:36:04.695Z,4.90
2023-09-18T01:38:07.227Z,4.10
2023-09-18T01:40:09.179Z,4.72
2023-09-18T01:42:10.861Z,4.40
2023-09-18T01:44:12.762Z,4.38
2023-09-18T01:46:14.646Z,4.32
2023-09-18T01:48:16.246Z,4.10
2023-09-18T01:50:17.726Z,4.32
2023-09-18T01:52:19.474Z,4.20
2023-09-18T01:54:21.393Z,4.20
2023-09-18T01:56:24.332Z,4.53
2023-09-18T01:58:25.821Z,4.55
2023-09-18T02:00:27.792Z,4.15
2023-09-18T02:02:43.157Z,4.18
2023-09-18T02:05:06.867Z,4.72
2023-09-18T02:07:10.930Z,3.92
2023-09-18T02:09:12.749Z,4.15
2023-09-18T02:11:14.254Z,3.75
2023-09-18T02:13:17.882Z,4.30
2023-09-18T02:15:24.280Z,4.38
2023-09-18T02:17:25.804Z,4.38
2023-09-18T02:19:27.382Z,3.92
2023-09-18T02:21:29.049Z,3.60
2023-09-18T02:23:30.519Z,3.45
2023-09-18T02:25:31.967Z,4.10
2023-09-18T02:27:33.458Z,3.95
2023-09-18T02:29:35.072Z,3.70
2023-09-18T02:31:36.583Z,4.07
2023-09-18T02:33:39.100Z,3.97
2023-09-18T02:35:41.800Z,3.95
2023-09-18T02:37:43.267Z,4.40
2023-09-18T02:39:44.664Z,3.70
2023-09-18T02:41:46.092Z,3.70
2023-09-18T02:43:47.586Z,3.70
2023-09-18T02:45:48.996Z,3.75
2023-09-18T02:47:50.542Z,3.70
2023-09-18T02:49:52.017Z,3.50
2023-09-18T02:51:53.446Z,3.67
2023-09-18T02:53:54.921Z,4.20
2023-09-18T02:55:57.932Z,3.75
2023-09-18T02:58:00.114Z,3.85
2023-09-18T03:00:01.562Z,4.13
2023-09-18T03:02:03.279Z,3.80
2023-09-18T03:04:05.132Z,3.42
2023-09-18T03:06:07.581Z,3.40
2023-09-18T03:08:09.972Z,3.35
2023-09-18T03:10:14.646Z,3.50
2023-09-18T03:12:16.089Z,3.53
2023-09-18T03:14:17.585Z,3.42
2023-09-18T03:16:19.258Z,3.63
2023-09-18T03:18:20.833Z,3.42
2023-09-18T03:20:27.595Z,3.55
2023-09-18T03:22:29.095Z,3.38
2023-09-18T03:24:30.724Z,3.47
2023-09-18T03:26:32.273Z,3.50
2023-09-18T03:28:33.750Z,4.05
2023-09-18T03:30:35.242Z,3.55
2023-09-18T03:32:37.254Z,3.75
2023-09-18T03:36:41.166Z,3.85
2023-09-18T03:38:42.728Z,3.22
2023-09-18T03:40:44.620Z,3.50
2023-09-18T03:42:47.094Z,3.58
2023-09-18T03:44:48.518Z,3.78
2023-09-18T03:46:49.930Z,3.72
2023-09-18T03:48:51.772Z,2.97
2023-09-18T03:50:53.496Z,3.15
2023-09-18T03:52:54.913Z,2.75
2023-09-18T03:54:56.617Z,2.80
2023-09-18T03:56:58.261Z,3.35
2023-09-18T03:59:02.071Z,3.38
2023-09-18T04:01:03.870Z,2.70
2023-09-18T04:03:05.502Z,2.97
2023-09-18T04:05:08.499Z,3.55
2023-09-18T04:07:10.336Z,3.30
2023-09-18T04:09:11.814Z,2.67
2023-09-18T04:11:13.463Z,3.00
2023-09-18T04:13:14.926Z,2.85
2023-09-18T04:15:16.644Z,2.80
2023-09-18T04:17:18.386Z,2.75
2023-09-18T04:19:20.318Z,2.72
2023-09-18T04:21:22.610Z,2.97
2023-09-18T04:23:26.719Z,3.00
2023-09-18T04:25:28.174Z,3.30
2023-09-18T04:27:29.606Z,2.70
2023-09-18T04:29:31.175Z,2.45
2023-09-18T04:31:33.017Z,2.60
2023-09-18T04:33:34.625Z,2.42
2023-09-18T04:35:36.175Z,2.35
2023-09-18T04:37:38.933Z,2.20
2023-09-18T04:39:40.740Z,2.75
2023-09-18T04:41:42.222Z,2.45
2023-09-18T04:43:43.830Z,2.58
2023-09-18T04:45:46.284Z,3.17
2023-09-18T04:47:47.843Z,2.45
2023-09-18T04:49:50.398Z,2.72
2023-09-18T04:51:51.813Z,2.40
2023-09-18T04:53:53.408Z,2.55
2023-09-18T04:55:55.442Z,2.45
2023-09-18T04:57:59.218Z,2.47
2023-09-18T05:00:15.571Z,2.47
2023-09-18T05:02:18.350Z,2.30
2023-09-18T05:04:19.826Z,2.63
2023-09-18T05:06:21.820Z,2.70
2023-09-18T05:08:23.698Z,2.72
2023-09-18T05:10:25.287Z,2.80
2023-09-18T05:12:26.819Z,2.92
2023-09-18T05:14:28.895Z,2.80
2023-09-18T05:16:30.398Z,2.35
2023-09-18T05:18:32.788Z,2.78
2023-09-18T05:20:35.899Z,2.45
2023-09-18T05:22:37.527Z,2.45
2023-09-18T05:24:39.717Z,2.38
2023-09-18T05:26:41.159Z,2.50
2023-09-18T05:28:42.671Z,3.17
2023-09-18T05:30:44.143Z,2.40
2023-09-18T05:32:46.904Z,2.53
2023-09-18T05:34:48.595Z,2.88
2023-09-18T05:36:50.226Z,2.42
2023-09-18T05:38:51.940Z,2.28
2023-09-18T05:40:53.655Z,2.75
2023-09-18T05:42:57.091Z,3.28
2023-09-18T05:44:58.533Z,2.50
2023-09-18T05:47:00.299Z,2.30
2023-09-18T05:49:02.336Z,2.60
2023-09-18T05:51:04.947Z,2.63
2023-09-18T05:53:06.560Z,2.75
2023-09-18T05:55:08.586Z,2.40
2023-09-18T05:57:10.051Z,2.42
2023-09-18T05:59:11.601Z,2.30
2023-09-18T06:01:13.074Z,2.33
2023-09-18T06:03:16.112Z,2.30
2023-09-18T06:05:18.738Z,2.33
2023-09-18T06:07:20.292Z,2.03
2023-09-18T06:09:22.074Z,2.63
2023-09-18T06:11:23.587Z,2.22
2023-09-18T06:13:25.802Z,2.25
2023-09-18T06:15:27.254Z,2.92
2023-09-18T06:17:28.839Z,2.05
2023-09-18T06:19:30.355Z,2.40
2023-09-18T06:21:32.875Z,2.20
2023-09-18T06:23:38.722Z,2.50
2023-09-18T06:25:40.864Z,2.50
2023-09-18T06:27:43.300Z,2.42
2023-09-18T06:29:44.785Z,2.38
2023-09-18T06:31:47.198Z,2.40
2023-09-18T06:33:48.683Z,2.20
2023-09-18T06:35:50.147Z,2.22
2023-09-18T06:37:51.710Z,2.42
2023-09-18T06:39:53.207Z,2.25
2023-09-18T06:41:54.726Z,2.20
2023-09-18T06:43:56.215Z,2.13
2023-09-18T06:45:58.919Z,2.35
2023-09-18T06:48:01.495Z,2.13
2023-09-18T06:50:05.376Z,2.13
2023-09-18T06:52:07.408Z,2.60
2023-09-18T06:54:09.029Z,2.28
2023-09-18T06:56:10.557Z,2.25
2023-09-18T06:58:12.045Z,2.20
2023-09-18T07:00:16.041Z,2.17
2023-09-18T07:02:17.869Z,1.83
2023-09-18T07:04:19.362Z,2.35
2023-09-18T07:06:21.360Z,2.10
2023-09-18T07:08:24.262Z,1.70
2023-09-18T07:10:25.834Z,2.08
2023-09-18T07:12:27.345Z,1.90
2023-09-18T07:14:28.957Z,2.15
2023-09-18T07:16:30.542Z,1.90
2023-09-18T07:18:32.034Z,1.83
2023-09-18T07:20:33.539Z,2.03
2023-09-18T07:22:35.042Z,1.98
2023-09-18T07:24:36.514Z,1.80
2023-09-18T07:26:38.077Z,1.83
2023-09-18T07:28:42.386Z,1.88
2023-09-18T07:30:44.794Z,1.75
2023-09-18T07:32:47.213Z,1.73
2023-09-18T07:34:48.810Z,1.70
2023-09-18T07:36:55.107Z,2.15
2023-09-18T07:38:57.532Z,1.95
2023-09-18T07:40:59.402Z,1.90
2023-09-18T07:43:00.981Z,1.75
2023-09-18T07:45:03.308Z,1.70
2023-09-18T07:47:04.902Z,2.00
2023-09-18T07:49:06.370Z,1.55
2023-09-18T07:53:16.210Z,1.83
2023-09-18T07:55:17.788Z,1.90
2023-09-18T07:57:20.493Z,1.80
2023-09-18T07:59:21.933Z,1.95
2023-09-18T08:01:23.873Z,2.50
2023-09-18T08:03:26.024Z,1.77
2023-09-18T08:05:32.765Z,1.58
2023-09-18T08:07:34.559Z,1.58
2023-09-18T08:09:37.423Z,1.50
2023-09-18T08:11:42.955Z,1.83
2023-09-18T08:13:44.472Z,1.63
2023-09-18T08:15:46.285Z,1.40
2023-09-18T08:17:49.639Z,1.63
2023-09-18T08:19:53.367Z,1.80
2023-09-18T08:21:55.706Z,2.10
2023-09-18T08:23:57.112Z,2.13
2023-09-18T08:25:59.366Z,1.58
2023-09-18T08:28:01.564Z,1.83
2023-09-18T08:30:03.369Z,1.70
2023-09-18T08:32:04.882Z,1.17
2023-09-18T08:34:06.405Z,1.42
2023-09-18T08:36:07.956Z,1.52
2023-09-18T08:38:09.509Z,1.40
2023-09-18T08:40:12.654Z,1.42
2023-09-18T08:42:16.307Z,1.52
2023-09-18T08:44:18.945Z,1.50
2023-09-18T08:46:22.007Z,1.67
2023-09-18T08:48:23.639Z,2.03
2023-09-18T08:50:26.418Z,1.10
2023-09-18T08:52:29.026Z,1.30
2023-09-18T08:54:30.540Z,1.40
2023-09-18T08:56:35.022Z,1.13
2023-09-18T08:58:40.866Z,1.45
2023-09-18T09:00:42.341Z,1.55
2023-09-18T09:02:49.820Z,1.67
2023-09-18T09:04:52.932Z,1.58
2023-09-18T09:06:54.634Z,1.50
2023-09-18T09:08:56.763Z,1.50
2023-09-18T09:11:01.465Z,1.20
2023-09-18T09:13:03.753Z,1.42
2023-09-18T09:15:05.918Z,1.40
2023-09-18T09:17:07.580Z,1.40
2023-09-18T09:19:09.066Z,1.42
2023-09-18T09:21:11.724Z,1.20
2023-09-18T09:23:13.152Z,1.95
2023-09-18T09:25:29.480Z,1.10
2023-09-18T09:27:43.190Z,1.33
2023-09-18T09:29:58.396Z,1.10
2023-09-18T09:32:14.441Z,1.45
2023-09-18T09:34:28.001Z,1.15
2023-09-18T09:36:29.513Z,1.13
2023-09-18T09:38:34.765Z,1.05
2023-09-18T09:40:39.118Z,1.10
2023-09-18T09:42:44.227Z,1.30
2023-09-18T09:44:47.089Z,1.30
2023-09-18T09:46:49.450Z,1.27
2023-09-18T09:49:03.050Z,1.10
2023-09-18T09:51:04.547Z,1.27
2023-09-18T09:53:06.018Z,1.02
2023-09-18T09:55:26.354Z,1.30
2023-09-18T09:57:27.762Z,1.30
2023-09-18T09:59:30.480Z,1.35
2023-09-18T10:01:32.381Z,1.10
2023-09-18T10:03:35.076Z,1.20
2023-09-18T10:05:39.644Z,1.40
2023-09-18T10:07:41.739Z,1.10
2023-09-18T10:09:44.884Z,1.40
2023-09-18T10:11:50.068Z,1.10
2023-09-18T10:14:20.047Z,1.05
2023-09-18T10:16:26.865Z,1.13
2023-09-18T10:18:47.693Z,1.05
2023-09-18T10:20:54.927Z,1.20
2023-09-18T10:22:58.102Z,1.52
2023-09-18T10:25:18.434Z,1.20
2023-09-18T10:27:22.643Z,1.17
2023-09-18T10:29:27.477Z,1.30
2023-09-18T10:31:29.865Z,1.35
2023-09-18T10:33:32.019Z,1.13
2023-09-18T10:35:33.476Z,1.33
2023-09-18T10:37:37.110Z,1.08
2023-09-18T10:39:43.292Z,1.15
2023-09-18T10:41:46.249Z,1.30
2023-09-18T10:43:51.000Z,1.33
2023-09-18T10:45:53.066Z,1.17
2023-09-18T10:47:56.370Z,1.27
2023-09-18T10:49:57.998Z,1.30
2023-09-18T10:52:00.319Z,1.30
2023-09-18T10:54:01.832Z,1.15
2023-09-18T10:56:07.159Z,1.55
2023-09-18T10:58:08.681Z,1.23
2023-09-18T11:00:15.229Z,1.95
2023-09-18T11:02:18.511Z,1.30
2023-09-18T11:04:21.863Z,1.40
2023-09-18T11:06:27.662Z,1.50
2023-09-18T11:08:35.004Z,1.30
2023-09-18T11:10:38.187Z,1.13
2023-09-18T11:12:46.407Z,1.13
2023-09-18T11:14:51.201Z,1.15
2023-09-18T11:16:52.966Z,1.55
2023-09-18T11:18:55.754Z,1.23
2023-09-18T11:21:11.329Z,1.15
2023-09-18T11:23:15.856Z,1.30
2023-09-18T11:25:35.765Z,1.50
2023-09-18T11:27:59.025Z,1.23
2023-09-18T11:30:02.250Z,1.10
2023-09-18T11:32:05.788Z,1.17
2023-09-18T11:34:13.194Z,1.08
2023-09-18T11:36:23.691Z,1.15
2023-09-18T11:38:25.289Z,1.10
2023-09-18T11:40:42.766Z,0.95
2023-09-18T11:43:20.641Z,1.10
2023-09-18T11:45:22.219Z,1.10
2023-09-18T11:47:28.920Z,1.10
2023-09-18T11:49:33.117Z,1.20
2023-09-18T11:54:02.149Z,1.30
2023-09-18T11:56:04.530Z,1.38
2023-09-18T11:58:06.925Z,1.50
2023-09-18T12:00:23.242Z,1.20
2023-09-18T12:02:37.089Z,1.40
2023-09-18T12:04:40.381Z,1.20
2023-09-18T12:06:43.127Z,1.10
2023-09-18T12:08:44.817Z,1.20
2023-09-18T12:10:50.222Z,1.15
2023-09-18T12:12:51.710Z,1.20
2023-09-18T12:14:53.259Z,1.05
2023-09-18T12:16:54.721Z,1.00
2023-09-18T12:18:56.197Z,1.13
2023-09-18T12:21:00.103Z,1.00
2023-09-18T12:23:03.634Z,1.00
2023-09-18T12:25:16.650Z,1.27
2023-09-18T12:27:18.889Z,1.10
2023-09-18T12:29:24.223Z,1.40
2023-09-18T12:31:25.830Z,0.90
2023-09-18T12:33:27.494Z,1.00
2023-09-18T12:35:31.155Z,1.33
2023-09-18T12:37:32.800Z,1.02
2023-09-18T12:39:34.311Z,1.30
2023-09-18T12:41:36.522Z,1.05
2023-09-18T12:43:42.883Z,1.60
2023-09-18T12:45:45.178Z,1.02
2023-09-18T12:47:47.168Z,1.13
2023-09-18T12:49:48.739Z,1.10
2023-09-18T12:52:00.365Z,0.70
2023-09-18T12:54:07.623Z,1.00
2023-09-18T12:56:15.962Z,0.90
2023-09-18T12:58:20.965Z,0.90
2023-09-18T13:00:24.086Z,1.23
2023-09-18T13:04:33.054Z,0.90
2023-09-18T13:06:39.127Z,1.13
2023-09-18T13:08:40.640Z,1.10
2023-09-18T13:10:46.660Z,1.08
2023-09-18T13:12:55.039Z,1.10
2023-09-18T13:15:06.139Z,1.10
2023-09-18T13:17:07.751Z,1.13
2023-09-18T13:19:09.257Z,1.17
2023-09-18T13:21:12.627Z,0.85
2023-09-18T13:23:14.234Z,1.23
2023-09-18T13:25:22.118Z,1.10
2023-09-18T13:27:24.434Z,1.25
2023-09-18T13:29:26.157Z,1.02
2023-09-18T13:31:29.330Z,1.15
2023-09-18T13:33:31.058Z,1.10
2023-09-18T13:35:34.035Z,1.08
2023-09-18T13:37:36.622Z,1.10
2023-09-18T13:39:38.135Z,1.05
2023-09-18T13:41:42.288Z,1.00
2023-09-18T13:43:44.364Z,0.93
2023-09-18T13:45:46.770Z,1.20
2023-09-18T13:47:50.868Z,1.20
2023-09-18T13:49:53.117Z,1.10
2023-09-18T13:51:55.586Z,1.05
2023-09-18T13:53:57.891Z,1.10
2023-09-18T13:55:59.470Z,1.13
2023-09-18T13:58:04.120Z,0.95
2023-09-18T14:00:07.970Z,1.25
2023-09-18T14:02:09.796Z,1.08
2023-09-18T14:04:11.974Z,1.10
2023-09-18T14:06:13.558Z,1.20
2023-09-18T14:08:15.104Z,1.17
2023-09-18T14:10:16.796Z,1.10
2023-09-18T14:12:18.282Z,1.00
2023-09-18T14:14:19.826Z,1.13
2023-09-18T14:16:21.336Z,1.27
2023-09-18T14:18:22.943Z,1.20
2023-09-18T14:20:24.549Z,1.25
2023-09-18T14:22:26.339Z,1.10
2023-09-18T14:24:27.918Z,1.30
2023-09-18T14:26:29.362Z,1.10
2023-09-18T14:28:34.242Z,1.08
2023-09-18T14:30:35.912Z,1.20
2023-09-18T14:32:37.838Z,0.88
2023-09-18T14:34:40.038Z,1.23
2023-09-18T14:36:41.510Z,1.08
2023-09-18T14:38:43.010Z,1.08
2023-09-18T14:40:44.534Z,1.00
2023-09-18T14:42:45.983Z,1.20
2023-09-18T14:44:47.891Z,1.02
2023-09-18T14:46:50.389Z,1.25
2023-09-18T14:48:52.312Z,1.00
2023-09-18T14:50:56.966Z,0.90
2023-09-18T14:52:58.413Z,1.00
2023-09-18T14:57:27.819Z,1.20
2023-09-18T14:59:41.451Z,1.10
2023-09-18T15:01:44.690Z,0.90
2023-09-18T15:03:46.551Z,0.90
2023-09-18T15:05:48.679Z,1.10
2023-09-18T15:07:50.185Z,1.20
2023-09-18T15:09:51.602Z,1.08
2023-09-18T15:11:53.189Z,0.93
2023-09-18T15:13:54.616Z,1.00
2023-09-18T15:15:56.423Z,1.10
2023-09-18T15:17:58.775Z,0.90
2023-09-18T15:20:01.132Z,1.38
2023-09-18T15:22:04.068Z,0.98
2023-09-18T15:24:05.802Z,1.27
2023-09-18T15:26:08.114Z,1.00
2023-09-18T15:28:09.673Z,1.00
2023-09-18T15:30:12.432Z,1.00
2023-09-18T15:32:14.051Z,0.88
2023-09-18T15:34:15.637Z,0.90
2023-09-18T15:36:17.159Z,0.82
2023-09-18T15:38:18.686Z,0.90
2023-09-18T15:40:21.900Z,0.90
2023-09-18T15:42:23.426Z,1.25
2023-09-18T15:44:24.914Z,1.10
2023-09-18T15:46:26.434Z,1.08
2023-09-18T15:48:29.395Z,1.10
2023-09-18T15:50:38.260Z,0.88
2023-09-18T15:52:41.985Z,1.10
2023-09-18T15:54:45.220Z,1.00
2023-09-18T15:56:46.770Z,1.55
2023-09-18T15:58:49.132Z,1.10
2023-09-18T16:00:51.182Z,0.93
2023-09-18T16:02:52.894Z,1.00
2023-09-18T16:04:54.521Z,0.98
2023-09-18T16:06:55.940Z,1.42
2023-09-18T16:08:58.096Z,0.95
2023-09-18T16:11:00.567Z,1.40
2023-09-18T16:13:02.247Z,1.40
2023-09-18T16:15:05.688Z,1.08
2023-09-18T16:17:07.261Z,1.17
2023-09-18T16:19:08.793Z,0.82
2023-09-18T16:21:10.269Z,1.10
2023-09-18T16:23:11.722Z,0.90
2023-09-18T16:25:13.482Z,1.02
2023-09-18T16:27:15.056Z,0.98
2023-09-18T16:29:16.539Z,1.13
2023-09-18T16:31:17.982Z,1.10
2023-09-18T16:33:19.547Z,1.00
2023-09-18T16:35:21.045Z,1.10
2023-09-18T16:37:22.518Z,1.02
2023-09-18T16:39:26.690Z,1.13
2023-09-18T16:41:28.757Z,1.08
2023-09-18T16:43:36.294Z,1.00
2023-09-18T16:45:38.237Z,0.98
2023-09-18T16:47:39.848Z,1.00
2023-09-18T16:49:41.417Z,1.10
2023-09-18T16:51:45.709Z,0.98
2023-09-18T16:53:47.216Z,1.13
2023-09-18T16:55:48.784Z,1.15
2023-09-18T16:57:51.700Z,1.40
2023-09-18T16:59:55.215Z,0.95
2023-09-18T17:01:58.065Z,1.40
2023-09-18T17:03:59.744Z,1.00
2023-09-18T17:06:01.702Z,1.17
2023-09-18T17:08:07.685Z,1.13
2023-09-18T17:10:10.616Z,1.20
2023-09-18T17:12:13.468Z,1.20
2023-09-18T17:14:15.501Z,1.33
2023-09-18T17:16:20.145Z,1.20
2023-09-18T17:18:21.758Z,1.23
2023-09-18T17:20:23.871Z,1.15
2023-09-18T17:22:25.556Z,1.10
2023-09-18T17:24:27.006Z,1.10
2023-09-18T17:26:28.703Z,1.10
2023-09-18T17:28:30.226Z,1.05
2023-09-18T17:30:32.662Z,1.02
2023-09-18T17:32:35.820Z,1.10
2023-09-18T17:34:37.321Z,1.08
2023-09-18T17:36:41.679Z,1.20
2023-09-18T17:38:45.161Z,1.23
2023-09-18T17:40:46.796Z,1.30
2023-09-18T17:42:48.256Z,1.15
2023-09-18T17:44:50.452Z,1.30
2023-09-18T17:46:51.910Z,1.40
2023-09-18T17:48:53.341Z,1.00
2023-09-18T17:50:54.863Z,1.30
2023-09-18T17:52:56.313Z,1.40
2023-09-18T17:54:59.066Z,1.15
2023-09-18T17:57:00.883Z,1.23
2023-09-18T17:59:02.907Z,1.23
2023-09-18T18:01:06.423Z,2.45
2023-09-18T18:03:08.401Z,1.90
2023-09-18T18:05:10.319Z,1.13
2023-09-18T18:07:11.899Z,1.30
2023-09-18T18:09:13.430Z,1.45
2023-09-18T18:11:14.940Z,1.20
2023-09-18T18:13:16.544Z,1.30
2023-09-18T18:15:18.119Z,1.33
2023-09-18T18:17:20.049Z,1.10
2023-09-18T18:19:22.357Z,1.55
2023-09-18T18:21:23.864Z,1.48
2023-09-18T18:23:25.310Z,1.40
2023-09-18T18:25:27.192Z,1.55
2023-09-18T18:27:29.761Z,1.23
2023-09-18T18:29:31.216Z,1.23
2023-09-18T18:31:33.653Z,1.10
2023-09-18T18:33:35.828Z,1.20
2023-09-18T18:35:39.848Z,1.10
2023-09-18T18:37:41.350Z,1.63
2023-09-18T18:39:42.746Z,1.75
2023-09-18T18:41:44.210Z,0.82
2023-09-18T18:43:47.729Z,1.00
2023-09-18T18:45:53.466Z,0.90
2023-09-18T18:47:56.349Z,0.77
2023-09-18T18:49:57.816Z,0.90
2023-09-18T18:51:59.274Z,0.80
2023-09-18T18:54:07.160Z,1.25
2023-09-18T18:56:08.887Z,0.80
2023-09-18T18:58:10.325Z,0.98
2023-09-18T19:00:12.754Z,0.93
2023-09-18T19:02:14.402Z,0.80
2023-09-18T19:04:17.315Z,1.02
2023-09-18T19:06:18.840Z,0.98
2023-09-18T19:08:20.255Z,0.85
2023-09-18T19:10:21.671Z,0.80
2023-09-18T19:12:23.310Z,1.02
2023-09-18T19:14:24.730Z,0.80
2023-09-18T19:16:26.271Z,1.20
2023-09-18T19:18:31.131Z,1.17
2023-09-18T19:20:33.202Z,1.60
2023-09-18T19:22:35.868Z,1.20
2023-09-18T19:24:37.686Z,1.65
2023-09-18T19:26:39.198Z,1.40
2023-09-18T19:28:40.733Z,1.67
2023-09-18T19:30:46.918Z,1.05
2023-09-18T19:32:48.616Z,1.02
2023-09-18T19:34:50.641Z,1.15
2023-09-18T19:37:06.794Z,1.20
2023-09-18T19:39:10.212Z,1.50
2023-09-18T19:41:12.460Z,0.95
2023-09-18T19:43:14.746Z,1.27
2023-09-18T19:45:16.337Z,1.10
2023-09-18T19:47:18.548Z,1.10
2023-09-18T19:49:20.024Z,1.20
2023-09-18T19:51:21.517Z,1.20
2023-09-18T19:53:22.937Z,1.10
2023-09-18T19:55:29.706Z,1.05
2023-09-18T19:57:31.815Z,1.13
2023-09-18T19:59:33.240Z,1.00
2023-09-18T20:01:35.173Z,1.40
2023-09-18T20:03:36.844Z,1.02
2023-09-18T20:05:38.463Z,1.10
2023-09-18T20:07:39.918Z,0.93
2023-09-18T20:09:41.726Z,1.13
2023-09-18T20:11:43.293Z,1.13
2023-09-18T20:13:44.727Z,1.20
2023-09-18T20:15:46.175Z,1.13
2023-09-18T20:17:48.231Z,1.25
2023-09-18T20:19:50.376Z,1.42
2023-09-18T20:21:52.022Z,0.95
2023-09-18T20:23:54.437Z,1.17
2023-09-18T20:25:57.638Z,1.25
2023-09-18T20:27:59.067Z,1.30
2023-09-18T20:30:01.722Z,1.25
2023-09-18T20:32:04.292Z,1.23
2023-09-18T20:34:06.441Z,1.60
2023-09-18T20:36:08.064Z,1.60
2023-09-18T20:40:14.129Z,1.30
2023-09-18T20:42:15.575Z,1.55
2023-09-18T20:44:16.989Z,1.52
2023-09-18T20:46:18.461Z,1.38
2023-09-18T20:48:20.585Z,1.45
2023-09-18T20:50:22.146Z,1.38
2023-09-18T20:52:24.155Z,1.55
2023-09-18T20:54:25.594Z,1.35
2023-09-18T20:56:28.084Z,1.35
2023-09-18T20:58:30.313Z,1.50
2023-09-18T21:00:33.265Z,1.55
2023-09-18T21:02:34.899Z,1.23
2023-09-18T21:04:37.941Z,1.35
2023-09-18T21:06:39.369Z,1.40
2023-09-18T21:08:41.433Z,1.60
2023-09-18T21:10:42.906Z,1.70
2023-09-18T21:12:44.618Z,1.40
2023-09-18T21:14:46.187Z,1.60
2023-09-18T21:16:47.670Z,1.40
2023-09-18T21:18:50.203Z,1.33
2023-09-18T21:20:52.856Z,1.63
2023-09-18T21:22:54.405Z,1.50
2023-09-18T21:24:55.841Z,1.20
2023-09-18T21:26:57.318Z,1.10
2023-09-18T21:28:59.612Z,2.05
2023-09-18T21:31:16.370Z,1.40
2023-09-18T21:33:17.941Z,1.50
2023-09-18T21:35:20.150Z,1.63
2023-09-18T21:37:22.381Z,1.52
2023-09-18T21:39:23.804Z,1.60
2023-09-18T21:41:25.256Z,1.50
2023-09-18T21:43:26.701Z,1.70
2023-09-18T21:45:28.423Z,1.35
2023-09-18T21:47:30.003Z,1.52
2023-09-18T21:49:31.618Z,1.60
2023-09-18T21:51:35.436Z,1.65
2023-09-18T21:55:47.497Z,1.60
2023-09-18T21:57:48.982Z,1.38
2023-09-18T21:59:50.449Z,1.30
2023-09-18T22:01:55.292Z,1.45
2023-09-18T22:03:56.809Z,1.50
2023-09-18T22:05:58.352Z,1.88
2023-09-18T22:08:00.420Z,1.60
2023-09-18T22:10:01.868Z,1.45
2023-09-18T22:12:05.160Z,1.10
2023-09-18T22:14:06.859Z,1.42
2023-09-18T22:16:08.774Z,1.35
2023-09-18T22:18:10.813Z,1.25
2023-09-18T22:20:14.983Z,1.70
2023-09-18T22:22:16.547Z,1.30
2023-09-18T22:24:20.083Z,1.30
2023-09-18T22:26:21.913Z,1.40
2023-09-18T22:28:23.903Z,1.40
2023-09-18T22:30:25.570Z,1.50
2023-09-18T22:32:27.138Z,1.73
2023-09-18T22:34:29.383Z,1.55
2023-09-18T22:36:30.896Z,2.22
2023-09-18T22:39:22.005Z,1.60
2023-09-18T22:41:23.992Z,1.70
2023-09-18T22:44:03.860Z,1.40
2023-09-18T22:46:43.113Z,1.35
2023-09-18T22:49:22.337Z,1.88
2023-09-18T22:52:01.317Z,1.60
2023-09-18T22:54:03.619Z,1.60
2023-09-18T22:56:08.518Z,1.45
2023-09-18T22:58:11.416Z,1.83
2023-09-18T23:00:19.157Z,1.48
2023-09-18T23:02:21.197Z,1.60
2023-09-18T23:04:22.989Z,1.70
2023-09-18T23:06:27.758Z,1.70
2023-09-18T23:08:31.115Z,1.88
2023-09-18T23:10:32.649Z,1.58
2023-09-18T23:12:35.410Z,1.77
2023-09-18T23:14:38.412Z,1.50
2023-09-18T23:16:39.910Z,1.52
2023-09-18T23:18:41.378Z,1.63
2023-09-18T23:20:42.818Z,1.90
2023-09-18T23:22:45.008Z,1.75
2023-09-18T23:24:47.193Z,1.60
2023-09-18T23:26:49.537Z,1.75
2023-09-18T23:28:50.970Z,1.80
2023-09-18T23:30:53.321Z,1.90
2023-09-18T23:32:57.094Z,1.80
2023-09-18T23:35:00.680Z,1.50
2023-09-18T23:37:04.496Z,2.00
2023-09-18T23:39:06.881Z,1.42
2023-09-18T23:41:09.872Z,2.20
2023-09-18T23:43:11.548Z,1.50
2023-09-18T23:45:15.229Z,1.85
2023-09-18T23:47:16.698Z,1.65
2023-09-18T23:49:21.289Z,1.48
2023-09-18T23:51:24.721Z,1.58
2023-09-18T23:53:36.625Z,1.70
2023-09-18T23:55:38.238Z,1.70
2023-09-18T23:57:39.734Z,1.65
2023-09-18T23:59:41.137Z,1.73
